sensor_id;sensor_type;location;lat;lon;timestamp;temperature;humidity
7704;DHT22;3894;49.700;10.770;2024-01-25T00:01:13;6.90;99.90
7704;DHT22;3894;49.700;10.770;2024-01-25T00:03:38;6.90;99.90
7704;DHT22;3894;49.700;10.770;2024-01-25T00:06:07;6.90;99.90
7704;DHT22;3894;49.700;10.770;2024-01-25T00:08:33;6.80;99.90
7704;DHT22;3894;49.700;10.770;2024-01-25T00:11:01;6.80;99.90
7704;DHT22;3894;49.700;10.770;2024-01-25T00:13:26;6.80;99.90
7704;DHT22;3894;49.700;10.770;2024-01-25T00:15:52;6.80;99.90
7704;DHT22;3894;49.700;10.770;2024-01-25T00:18:18;6.90;99.90
7704;DHT22;3894;49.700;10.770;2024-01-25T00:20:43;6.80;99.90
7704;DHT22;3894;49.700;10.770;2024-01-25T00:23:09;6.90;99.90
7704;DHT22;3894;49.700;10.770;2024-01-25T00:25:34;6.90;99.90
7704;DHT22;3894;49.700;10.770;2024-01-25T00:28:00;6.90;99.90
7704;DHT22;3894;49.700;10.770;2024-01-25T00:30:25;6.90;99.90
7704;DHT22;3894;49.700;10.770;2024-01-25T00:32:51;6.90;99.90
7704;DHT22;3894;49.700;10.770;2024-01-25T00:35:16;6.90;99.90
7704;DHT22;3894;49.700;10.770;2024-01-25T00:37:42;6.90;99.90
7704;DHT22;3894;49.700;10.770;2024-01-25T00:40:08;7.00;99.90
7704;DHT22;3894;49.700;10.770;2024-01-25T00:42:41;7.00;99.90
7704;DHT22;3894;49.700;10.770;2024-01-25T00:45:08;7.00;99.90
7704;DHT22;3894;49.700;10.770;2024-01-25T00:47:33;7.00;99.90
7704;DHT22;3894;49.700;10.770;2024-01-25T00:49:59;6.90;99.90
7704;DHT22;3894;49.700;10.770;2024-01-25T00:52:25;7.00;99.90
7704;DHT22;3894;49.700;10.770;2024-01-25T00:54:51;7.00;99.90
7704;DHT22;3894;49.700;10.770;2024-01-25T00:57:17;7.00;99.90
7704;DHT22;3894;49.700;10.770;2024-01-25T00:59:43;7.00;99.90
7704;DHT22;3894;49.700;10.770;2024-01-25T01:02:11;7.00;99.90
7704;DHT22;3894;49.700;10.770;2024-01-25T01:04:39;7.00;99.90
7704;DHT22;3894;49.700;10.770;2024-01-25T01:07:05;7.10;99.90
7704;DHT22;3894;49.700;10.770;2024-01-25T01:09:30;7.00;99.90
7704;DHT22;3894;49.700;10.770;2024-01-25T01:11:56;7.10;99.90
7704;DHT22;3894;49.700;10.770;2024-01-25T01:14:21;7.10;99.90
7704;DHT22;3894;49.700;10.770;2024-01-25T01:16:47;7.00;99.90
7704;DHT22;3894;49.700;10.770;2024-01-25T01:19:13;7.00;99.90
7704;DHT22;3894;49.700;10.770;2024-01-25T01:21:38;7.00;99.90
7704;DHT22;3894;49.700;10.770;2024-01-25T01:24:07;7.10;99.90
7704;DHT22;3894;49.700;10.770;2024-01-25T01:26:33;7.10;99.90
7704;DHT22;3894;49.700;10.770;2024-01-25T01:29:00;7.00;99.90
7704;DHT22;3894;49.700;10.770;2024-01-25T01:31:26;7.00;99.90
7704;DHT22;3894;49.700;10.770;2024-01-25T01:33:51;7.00;99.90
7704;DHT22;3894;49.700;10.770;2024-01-25T01:36:17;7.00;99.90
7704;DHT22;3894;49.700;10.770;2024-01-25T01:38:42;7.00;99.90
7704;DHT22;3894;49.700;10.770;2024-01-25T01:41:10;7.00;99.90
7704;DHT22;3894;49.700;10.770;2024-01-25T01:43:37;6.90;99.90
7704;DHT22;3894;49.700;10.770;2024-01-25T01:48:48;6.90;99.90
7704;DHT22;3894;49.700;10.770;2024-01-25T01:51:14;6.90;99.90
7704;DHT22;3894;49.700;10.770;2024-01-25T01:53:39;6.90;99.90
7704;DHT22;3894;49.700;10.770;2024-01-25T01:56:06;6.80;99.90
7704;DHT22;3894;49.700;10.770;2024-01-25T01:58:32;6.90;99.90
7704;DHT22;3894;49.700;10.770;2024-01-25T02:00:59;6.80;99.90
7704;DHT22;3894;49.700;10.770;2024-01-25T02:03:25;6.80;99.90
7704;DHT22;3894;49.700;10.770;2024-01-25T02:05:50;6.90;99.90
7704;DHT22;3894;49.700;10.770;2024-01-25T02:08:16;6.90;99.90
7704;DHT22;3894;49.700;10.770;2024-01-25T02:10:42;6.80;99.90
7704;DHT22;3894;49.700;10.770;2024-01-25T02:13:08;6.90;99.90
7704;DHT22;3894;49.700;10.770;2024-01-25T02:15:34;6.90;99.90
7704;DHT22;3894;49.700;10.770;2024-01-25T02:17:59;6.90;99.90
7704;DHT22;3894;49.700;10.770;2024-01-25T02:20:25;6.80;99.90
7704;DHT22;3894;49.700;10.770;2024-01-25T02:22:51;6.80;99.90
7704;DHT22;3894;49.700;10.770;2024-01-25T02:25:17;6.90;99.90
7704;DHT22;3894;49.700;10.770;2024-01-25T02:27:45;6.80;99.90
7704;DHT22;3894;49.700;10.770;2024-01-25T02:30:11;6.80;99.90
7704;DHT22;3894;49.700;10.770;2024-01-25T02:32:36;6.80;99.90
7704;DHT22;3894;49.700;10.770;2024-01-25T02:35:02;6.80;99.90
7704;DHT22;3894;49.700;10.770;2024-01-25T02:37:30;6.80;99.90
7704;DHT22;3894;49.700;10.770;2024-01-25T02:39:56;6.80;99.90
7704;DHT22;3894;49.700;10.770;2024-01-25T02:42:22;6.80;99.90
7704;DHT22;3894;49.700;10.770;2024-01-25T02:44:47;6.70;99.90
7704;DHT22;3894;49.700;10.770;2024-01-25T02:47:14;6.70;99.90
7704;DHT22;3894;49.700;10.770;2024-01-25T02:49:40;6.70;99.90
7704;DHT22;3894;49.700;10.770;2024-01-25T02:52:06;6.70;99.90
7704;DHT22;3894;49.700;10.770;2024-01-25T02:54:34;6.60;99.90
7704;DHT22;3894;49.700;10.770;2024-01-25T02:57:01;6.60;99.90
7704;DHT22;3894;49.700;10.770;2024-01-25T02:59:27;6.60;99.90
7704;DHT22;3894;49.700;10.770;2024-01-25T03:01:54;6.60;99.90
7704;DHT22;3894;49.700;10.770;2024-01-25T03:04:20;6.50;99.90
7704;DHT22;3894;49.700;10.770;2024-01-25T03:06:45;6.50;99.90
7704;DHT22;3894;49.700;10.770;2024-01-25T03:09:11;6.50;99.90
7704;DHT22;3894;49.700;10.770;2024-01-25T03:11:36;6.50;99.90
7704;DHT22;3894;49.700;10.770;2024-01-25T03:14:02;6.50;99.90
7704;DHT22;3894;49.700;10.770;2024-01-25T03:16:27;6.50;99.90
7704;DHT22;3894;49.700;10.770;2024-01-25T03:18:53;6.50;99.90
7704;DHT22;3894;49.700;10.770;2024-01-25T03:21:19;6.50;99.90
7704;DHT22;3894;49.700;10.770;2024-01-25T03:23:44;6.50;99.90
7704;DHT22;3894;49.700;10.770;2024-01-25T03:26:10;6.60;99.90
7704;DHT22;3894;49.700;10.770;2024-01-25T03:28:35;6.50;99.90
7704;DHT22;3894;49.700;10.770;2024-01-25T03:31:02;6.50;99.90
7704;DHT22;3894;49.700;10.770;2024-01-25T03:33:28;6.60;99.90
7704;DHT22;3894;49.700;10.770;2024-01-25T03:35:54;6.60;99.90
7704;DHT22;3894;49.700;10.770;2024-01-25T03:38:20;6.60;99.90
7704;DHT22;3894;49.700;10.770;2024-01-25T03:40:45;6.60;99.90
7704;DHT22;3894;49.700;10.770;2024-01-25T03:43:12;6.60;99.90
7704;DHT22;3894;49.700;10.770;2024-01-25T03:45:37;6.60;99.90
7704;DHT22;3894;49.700;10.770;2024-01-25T03:48:03;6.60;99.90
7704;DHT22;3894;49.700;10.770;2024-01-25T03:50:29;6.70;99.90
7704;DHT22;3894;49.700;10.770;2024-01-25T03:52:54;6.70;99.90
7704;DHT22;3894;49.700;10.770;2024-01-25T03:55:20;6.70;99.90
7704;DHT22;3894;49.700;10.770;2024-01-25T03:57:45;6.70;99.90
7704;DHT22;3894;49.700;10.770;2024-01-25T04:00:12;6.70;99.90
7704;DHT22;3894;49.700;10.770;2024-01-25T04:02:37;6.80;99.90
7704;DHT22;3894;49.700;10.770;2024-01-25T04:05:04;6.80;99.90
7704;DHT22;3894;49.700;10.770;2024-01-25T04:07:29;6.70;99.90
7704;DHT22;3894;49.700;10.770;2024-01-25T04:09:55;6.70;99.90
7704;DHT22;3894;49.700;10.770;2024-01-25T04:12:21;6.80;99.90
7704;DHT22;3894;49.700;10.770;2024-01-25T04:14:46;6.80;99.90
7704;DHT22;3894;49.700;10.770;2024-01-25T04:17:12;6.80;99.90
7704;DHT22;3894;49.700;10.770;2024-01-25T04:19:38;6.80;99.90
7704;DHT22;3894;49.700;10.770;2024-01-25T04:22:04;6.90;99.90
7704;DHT22;3894;49.700;10.770;2024-01-25T04:24:30;6.90;99.90
7704;DHT22;3894;49.700;10.770;2024-01-25T04:26:55;6.90;99.90
7704;DHT22;3894;49.700;10.770;2024-01-25T04:29:22;6.90;99.90
7704;DHT22;3894;49.700;10.770;2024-01-25T04:31:47;6.90;99.90
7704;DHT22;3894;49.700;10.770;2024-01-25T04:34:15;6.90;99.90
7704;DHT22;3894;49.700;10.770;2024-01-25T04:36:41;6.80;99.90
7704;DHT22;3894;49.700;10.770;2024-01-25T04:39:07;6.80;99.90
7704;DHT22;3894;49.700;10.770;2024-01-25T04:41:33;6.80;99.90
7704;DHT22;3894;49.700;10.770;2024-01-25T04:43:58;6.80;99.90
7704;DHT22;3894;49.700;10.770;2024-01-25T04:46:24;6.80;99.90
7704;DHT22;3894;49.700;10.770;2024-01-25T04:48:50;6.80;99.90
7704;DHT22;3894;49.700;10.770;2024-01-25T04:51:17;6.80;99.90
7704;DHT22;3894;49.700;10.770;2024-01-25T04:53:42;6.80;99.90
7704;DHT22;3894;49.700;10.770;2024-01-25T04:56:08;6.80;99.90
7704;DHT22;3894;49.700;10.770;2024-01-25T04:58:34;6.80;99.90
7704;DHT22;3894;49.700;10.770;2024-01-25T05:01:00;6.70;99.90
7704;DHT22;3894;49.700;10.770;2024-01-25T05:03:25;6.70;99.90
7704;DHT22;3894;49.700;10.770;2024-01-25T05:05:51;6.70;99.90
7704;DHT22;3894;49.700;10.770;2024-01-25T05:08:17;6.70;99.90
7704;DHT22;3894;49.700;10.770;2024-01-25T05:10:42;6.80;99.90
7704;DHT22;3894;49.700;10.770;2024-01-25T05:13:08;6.70;99.90
7704;DHT22;3894;49.700;10.770;2024-01-25T05:15:34;6.70;99.90
7704;DHT22;3894;49.700;10.770;2024-01-25T05:18:01;6.70;99.90
7704;DHT22;3894;49.700;10.770;2024-01-25T05:20:26;6.70;99.90
7704;DHT22;3894;49.700;10.770;2024-01-25T05:23:01;6.70;99.90
7704;DHT22;3894;49.700;10.770;2024-01-25T05:25:27;6.70;99.90
7704;DHT22;3894;49.700;10.770;2024-01-25T05:27:53;6.70;99.90
7704;DHT22;3894;49.700;10.770;2024-01-25T05:30:19;6.70;99.90
7704;DHT22;3894;49.700;10.770;2024-01-25T05:32:45;6.70;99.90
7704;DHT22;3894;49.700;10.770;2024-01-25T05:35:11;6.80;99.90
7704;DHT22;3894;49.700;10.770;2024-01-25T05:37:37;6.80;99.90
7704;DHT22;3894;49.700;10.770;2024-01-25T05:40:02;6.80;99.90
7704;DHT22;3894;49.700;10.770;2024-01-25T05:42:28;6.80;99.90
7704;DHT22;3894;49.700;10.770;2024-01-25T05:44:54;6.80;99.90
7704;DHT22;3894;49.700;10.770;2024-01-25T05:47:19;6.80;99.90
7704;DHT22;3894;49.700;10.770;2024-01-25T05:49:45;6.80;99.90
7704;DHT22;3894;49.700;10.770;2024-01-25T05:52:10;6.70;99.90
7704;DHT22;3894;49.700;10.770;2024-01-25T05:54:36;6.70;99.90
7704;DHT22;3894;49.700;10.770;2024-01-25T05:57:01;6.70;99.90
7704;DHT22;3894;49.700;10.770;2024-01-25T05:59:27;6.70;99.90
7704;DHT22;3894;49.700;10.770;2024-01-25T06:01:53;6.70;99.90
7704;DHT22;3894;49.700;10.770;2024-01-25T06:04:18;6.70;99.90
7704;DHT22;3894;49.700;10.770;2024-01-25T06:06:44;6.60;99.90
7704;DHT22;3894;49.700;10.770;2024-01-25T06:09:10;6.60;99.90
7704;DHT22;3894;49.700;10.770;2024-01-25T06:11:35;6.50;99.90
7704;DHT22;3894;49.700;10.770;2024-01-25T06:14:01;6.50;99.90
7704;DHT22;3894;49.700;10.770;2024-01-25T06:16:27;6.40;99.90
7704;DHT22;3894;49.700;10.770;2024-01-25T06:18:52;6.40;99.90
7704;DHT22;3894;49.700;10.770;2024-01-25T06:21:18;6.30;99.90
7704;DHT22;3894;49.700;10.770;2024-01-25T06:23:43;6.30;99.90
7704;DHT22;3894;49.700;10.770;2024-01-25T06:26:09;6.20;99.90
7704;DHT22;3894;49.700;10.770;2024-01-25T06:28:34;6.20;99.90
7704;DHT22;3894;49.700;10.770;2024-01-25T06:31:03;6.20;99.90
7704;DHT22;3894;49.700;10.770;2024-01-25T06:33:29;6.10;99.90
7704;DHT22;3894;49.700;10.770;2024-01-25T06:35:56;6.10;99.90
7704;DHT22;3894;49.700;10.770;2024-01-25T06:38:21;6.10;99.90
7704;DHT22;3894;49.700;10.770;2024-01-25T06:40:47;6.00;99.90
7704;DHT22;3894;49.700;10.770;2024-01-25T06:43:12;6.00;99.90
7704;DHT22;3894;49.700;10.770;2024-01-25T06:45:38;6.00;99.90
7704;DHT22;3894;49.700;10.770;2024-01-25T06:48:06;5.90;99.90
7704;DHT22;3894;49.700;10.770;2024-01-25T06:50:32;5.90;99.90
7704;DHT22;3894;49.700;10.770;2024-01-25T06:52:57;5.90;99.90
7704;DHT22;3894;49.700;10.770;2024-01-25T06:55:23;5.90;99.90
7704;DHT22;3894;49.700;10.770;2024-01-25T06:57:49;5.80;99.90
7704;DHT22;3894;49.700;10.770;2024-01-25T07:00:15;5.80;99.90
7704;DHT22;3894;49.700;10.770;2024-01-25T07:02:41;5.70;99.90
7704;DHT22;3894;49.700;10.770;2024-01-25T07:05:08;5.70;99.90
7704;DHT22;3894;49.700;10.770;2024-01-25T07:07:33;5.60;99.90
7704;DHT22;3894;49.700;10.770;2024-01-25T07:09:59;5.50;99.90
7704;DHT22;3894;49.700;10.770;2024-01-25T07:12:25;5.50;99.90
7704;DHT22;3894;49.700;10.770;2024-01-25T07:14:50;5.50;99.90
7704;DHT22;3894;49.700;10.770;2024-01-25T07:17:16;5.40;99.90
7704;DHT22;3894;49.700;10.770;2024-01-25T07:19:41;5.40;99.90
7704;DHT22;3894;49.700;10.770;2024-01-25T07:22:07;5.40;99.90
7704;DHT22;3894;49.700;10.770;2024-01-25T07:24:33;5.40;99.90
7704;DHT22;3894;49.700;10.770;2024-01-25T07:26:58;5.40;99.90
7704;DHT22;3894;49.700;10.770;2024-01-25T07:29:24;5.40;99.90
7704;DHT22;3894;49.700;10.770;2024-01-25T07:31:50;5.30;99.90
7704;DHT22;3894;49.700;10.770;2024-01-25T07:34:15;5.30;99.90
7704;DHT22;3894;49.700;10.770;2024-01-25T07:36:41;5.30;99.90
7704;DHT22;3894;49.700;10.770;2024-01-25T07:39:06;5.30;99.90
7704;DHT22;3894;49.700;10.770;2024-01-25T07:41:33;5.30;99.90
7704;DHT22;3894;49.700;10.770;2024-01-25T07:43:59;5.30;99.90
7704;DHT22;3894;49.700;10.770;2024-01-25T07:46:24;5.30;99.90
7704;DHT22;3894;49.700;10.770;2024-01-25T07:48:50;5.30;99.90
7704;DHT22;3894;49.700;10.770;2024-01-25T07:51:16;5.30;99.90
7704;DHT22;3894;49.700;10.770;2024-01-25T07:53:41;5.30;99.90
7704;DHT22;3894;49.700;10.770;2024-01-25T07:56:07;5.40;99.90
7704;DHT22;3894;49.700;10.770;2024-01-25T07:58:35;5.40;99.90
7704;DHT22;3894;49.700;10.770;2024-01-25T08:01:03;5.50;99.90
7704;DHT22;3894;49.700;10.770;2024-01-25T08:03:29;5.50;99.90
7704;DHT22;3894;49.700;10.770;2024-01-25T08:05:54;5.60;99.90
7704;DHT22;3894;49.700;10.770;2024-01-25T08:08:20;5.60;99.90
7704;DHT22;3894;49.700;10.770;2024-01-25T08:10:46;5.60;99.90
7704;DHT22;3894;49.700;10.770;2024-01-25T08:13:12;5.60;99.90
7704;DHT22;3894;49.700;10.770;2024-01-25T08:15:38;5.60;99.90
7704;DHT22;3894;49.700;10.770;2024-01-25T08:18:03;5.70;99.90
7704;DHT22;3894;49.700;10.770;2024-01-25T08:20:31;5.70;99.90
7704;DHT22;3894;49.700;10.770;2024-01-25T08:22:56;5.70;99.90
7704;DHT22;3894;49.700;10.770;2024-01-25T08:25:22;5.80;99.90
7704;DHT22;3894;49.700;10.770;2024-01-25T08:27:47;5.90;99.90
7704;DHT22;3894;49.700;10.770;2024-01-25T08:30:13;5.90;99.90
7704;DHT22;3894;49.700;10.770;2024-01-25T08:32:39;6.00;99.90
7704;DHT22;3894;49.700;10.770;2024-01-25T08:35:05;6.10;99.90
7704;DHT22;3894;49.700;10.770;2024-01-25T08:37:31;6.20;99.90
7704;DHT22;3894;49.700;10.770;2024-01-25T08:39:56;6.30;99.90
7704;DHT22;3894;49.700;10.770;2024-01-25T08:42:22;6.30;99.90
7704;DHT22;3894;49.700;10.770;2024-01-25T08:44:47;6.40;99.90
7704;DHT22;3894;49.700;10.770;2024-01-25T08:47:19;6.50;99.90
7704;DHT22;3894;49.700;10.770;2024-01-25T08:49:44;6.50;99.90
7704;DHT22;3894;49.700;10.770;2024-01-25T08:52:10;6.60;99.90
7704;DHT22;3894;49.700;10.770;2024-01-25T08:54:37;6.60;99.90
7704;DHT22;3894;49.700;10.770;2024-01-25T08:57:04;6.60;99.90
7704;DHT22;3894;49.700;10.770;2024-01-25T08:59:30;6.70;99.90
7704;DHT22;3894;49.700;10.770;2024-01-25T09:01:58;6.70;99.90
7704;DHT22;3894;49.700;10.770;2024-01-25T09:04:24;6.80;99.90
7704;DHT22;3894;49.700;10.770;2024-01-25T09:06:50;6.90;99.90
7704;DHT22;3894;49.700;10.770;2024-01-25T09:09:15;6.90;99.90
7704;DHT22;3894;49.700;10.770;2024-01-25T09:11:41;7.00;99.90
7704;DHT22;3894;49.700;10.770;2024-01-25T09:14:06;7.10;99.90
7704;DHT22;3894;49.700;10.770;2024-01-25T09:16:32;7.20;99.90
7704;DHT22;3894;49.700;10.770;2024-01-25T09:18:57;7.20;99.90
7704;DHT22;3894;49.700;10.770;2024-01-25T09:21:23;7.30;99.90
7704;DHT22;3894;49.700;10.770;2024-01-25T09:23:48;7.30;99.90
7704;DHT22;3894;49.700;10.770;2024-01-25T09:26:14;7.40;99.90
7704;DHT22;3894;49.700;10.770;2024-01-25T09:28:39;7.40;99.90
7704;DHT22;3894;49.700;10.770;2024-01-25T09:31:05;7.40;99.90
7704;DHT22;3894;49.700;10.770;2024-01-25T09:33:30;7.40;99.90
7704;DHT22;3894;49.700;10.770;2024-01-25T09:35:56;7.50;99.90
7704;DHT22;3894;49.700;10.770;2024-01-25T09:38:21;7.60;99.90
7704;DHT22;3894;49.700;10.770;2024-01-25T09:40:47;7.60;99.90
7704;DHT22;3894;49.700;10.770;2024-01-25T09:43:14;7.60;99.90
7704;DHT22;3894;49.700;10.770;2024-01-25T09:45:41;7.60;99.90
7704;DHT22;3894;49.700;10.770;2024-01-25T09:48:07;7.70;99.90
7704;DHT22;3894;49.700;10.770;2024-01-25T09:50:33;7.70;99.90
7704;DHT22;3894;49.700;10.770;2024-01-25T09:52:59;7.70;99.90
7704;DHT22;3894;49.700;10.770;2024-01-25T09:55:26;7.70;99.90
7704;DHT22;3894;49.700;10.770;2024-01-25T09:57:55;7.70;99.90
7704;DHT22;3894;49.700;10.770;2024-01-25T10:00:22;7.70;99.90
7704;DHT22;3894;49.700;10.770;2024-01-25T10:02:48;7.70;99.90
7704;DHT22;3894;49.700;10.770;2024-01-25T10:05:18;7.70;99.90
7704;DHT22;3894;49.700;10.770;2024-01-25T10:07:45;7.70;99.90
7704;DHT22;3894;49.700;10.770;2024-01-25T10:10:12;7.70;99.90
7704;DHT22;3894;49.700;10.770;2024-01-25T10:12:40;7.70;99.90
7704;DHT22;3894;49.700;10.770;2024-01-25T10:15:06;7.70;99.90
7704;DHT22;3894;49.700;10.770;2024-01-25T10:17:32;7.80;99.90
7704;DHT22;3894;49.700;10.770;2024-01-25T10:19:58;7.80;99.90
7704;DHT22;3894;49.700;10.770;2024-01-25T10:22:24;7.80;99.90
7704;DHT22;3894;49.700;10.770;2024-01-25T10:24:50;7.80;99.90
7704;DHT22;3894;49.700;10.770;2024-01-25T10:27:16;7.90;99.90
7704;DHT22;3894;49.700;10.770;2024-01-25T10:29:42;7.90;99.90
7704;DHT22;3894;49.700;10.770;2024-01-25T10:32:11;8.00;99.90
7704;DHT22;3894;49.700;10.770;2024-01-25T10:34:38;8.00;99.90
7704;DHT22;3894;49.700;10.770;2024-01-25T10:37:05;8.00;99.90
7704;DHT22;3894;49.700;10.770;2024-01-25T10:39:32;8.10;99.90
7704;DHT22;3894;49.700;10.770;2024-01-25T10:41:59;8.10;99.90
7704;DHT22;3894;49.700;10.770;2024-01-25T10:44:25;8.10;99.90
7704;DHT22;3894;49.700;10.770;2024-01-25T10:46:51;8.10;99.90
7704;DHT22;3894;49.700;10.770;2024-01-25T10:49:17;8.10;99.90
7704;DHT22;3894;49.700;10.770;2024-01-25T10:51:44;8.10;99.90
7704;DHT22;3894;49.700;10.770;2024-01-25T10:54:14;8.20;99.90
7704;DHT22;3894;49.700;10.770;2024-01-25T10:56:46;8.20;99.90
7704;DHT22;3894;49.700;10.770;2024-01-25T10:59:13;8.10;99.90
7704;DHT22;3894;49.700;10.770;2024-01-25T11:01:44;8.20;99.90
7704;DHT22;3894;49.700;10.770;2024-01-25T11:04:17;8.10;99.90
7704;DHT22;3894;49.700;10.770;2024-01-25T11:06:46;8.00;99.90
7704;DHT22;3894;49.700;10.770;2024-01-25T11:09:20;8.00;99.90
7704;DHT22;3894;49.700;10.770;2024-01-25T11:11:46;8.00;99.90
7704;DHT22;3894;49.700;10.770;2024-01-25T11:14:13;8.00;99.90
7704;DHT22;3894;49.700;10.770;2024-01-25T11:16:40;8.00;99.90
7704;DHT22;3894;49.700;10.770;2024-01-25T11:19:16;8.10;99.90
7704;DHT22;3894;49.700;10.770;2024-01-25T11:21:46;8.10;99.90
7704;DHT22;3894;49.700;10.770;2024-01-25T11:24:36;8.10;99.90
7704;DHT22;3894;49.700;10.770;2024-01-25T11:27:03;8.00;99.90
7704;DHT22;3894;49.700;10.770;2024-01-25T11:29:30;8.10;99.90
7704;DHT22;3894;49.700;10.770;2024-01-25T11:31:55;8.10;99.90
7704;DHT22;3894;49.700;10.770;2024-01-25T11:34:22;8.20;99.90
7704;DHT22;3894;49.700;10.770;2024-01-25T11:36:49;8.20;99.90
7704;DHT22;3894;49.700;10.770;2024-01-25T11:39:15;8.20;99.90
7704;DHT22;3894;49.700;10.770;2024-01-25T11:41:43;8.10;99.90
7704;DHT22;3894;49.700;10.770;2024-01-25T11:44:13;8.10;99.90
7704;DHT22;3894;49.700;10.770;2024-01-25T11:46:39;8.10;99.90
7704;DHT22;3894;49.700;10.770;2024-01-25T11:49:05;8.10;99.90
7704;DHT22;3894;49.700;10.770;2024-01-25T11:51:32;8.00;99.90
7704;DHT22;3894;49.700;10.770;2024-01-25T11:53:58;8.10;99.90
7704;DHT22;3894;49.700;10.770;2024-01-25T11:56:33;8.10;99.90
7704;DHT22;3894;49.700;10.770;2024-01-25T11:58:59;8.00;99.90
7704;DHT22;3894;49.700;10.770;2024-01-25T12:01:26;8.00;99.90
7704;DHT22;3894;49.700;10.770;2024-01-25T12:03:52;8.00;99.90
7704;DHT22;3894;49.700;10.770;2024-01-25T12:06:18;8.00;99.90
7704;DHT22;3894;49.700;10.770;2024-01-25T12:08:44;8.00;99.90
7704;DHT22;3894;49.700;10.770;2024-01-25T12:11:11;8.00;99.90
7704;DHT22;3894;49.700;10.770;2024-01-25T12:13:42;8.00;99.90
7704;DHT22;3894;49.700;10.770;2024-01-25T12:16:09;8.00;99.90
7704;DHT22;3894;49.700;10.770;2024-01-25T12:18:35;8.10;99.90
7704;DHT22;3894;49.700;10.770;2024-01-25T12:21:04;8.00;99.90
7704;DHT22;3894;49.700;10.770;2024-01-25T12:23:35;8.00;99.90
7704;DHT22;3894;49.700;10.770;2024-01-25T12:26:05;8.00;99.90
7704;DHT22;3894;49.700;10.770;2024-01-25T12:28:31;8.00;99.90
7704;DHT22;3894;49.700;10.770;2024-01-25T12:31:00;8.00;99.90
7704;DHT22;3894;49.700;10.770;2024-01-25T12:33:26;8.10;99.90
7704;DHT22;3894;49.700;10.770;2024-01-25T12:35:52;8.10;99.90
7704;DHT22;3894;49.700;10.770;2024-01-25T12:38:19;8.10;99.90
7704;DHT22;3894;49.700;10.770;2024-01-25T12:40:46;8.10;99.90
7704;DHT22;3894;49.700;10.770;2024-01-25T12:43:12;8.20;99.90
7704;DHT22;3894;49.700;10.770;2024-01-25T12:45:38;8.20;99.90
7704;DHT22;3894;49.700;10.770;2024-01-25T12:48:04;8.10;99.90
7704;DHT22;3894;49.700;10.770;2024-01-25T12:50:32;8.10;99.90
7704;DHT22;3894;49.700;10.770;2024-01-25T12:52:57;8.10;99.90
7704;DHT22;3894;49.700;10.770;2024-01-25T12:55:24;8.10;99.90
7704;DHT22;3894;49.700;10.770;2024-01-25T12:57:50;8.20;99.90
7704;DHT22;3894;49.700;10.770;2024-01-25T13:00:16;8.20;99.90
7704;DHT22;3894;49.700;10.770;2024-01-25T13:02:41;8.10;99.90
7704;DHT22;3894;49.700;10.770;2024-01-25T13:05:07;8.10;99.90
7704;DHT22;3894;49.700;10.770;2024-01-25T13:07:32;8.10;99.90
7704;DHT22;3894;49.700;10.770;2024-01-25T13:09:58;8.10;99.90
7704;DHT22;3894;49.700;10.770;2024-01-25T13:12:23;8.00;99.90
7704;DHT22;3894;49.700;10.770;2024-01-25T13:14:49;8.00;99.90
7704;DHT22;3894;49.700;10.770;2024-01-25T13:17:15;8.00;99.90
7704;DHT22;3894;49.700;10.770;2024-01-25T13:19:40;8.00;99.90
7704;DHT22;3894;49.700;10.770;2024-01-25T13:22:06;8.00;99.90
7704;DHT22;3894;49.700;10.770;2024-01-25T13:24:31;8.00;99.90
7704;DHT22;3894;49.700;10.770;2024-01-25T13:26:57;8.00;99.90
7704;DHT22;3894;49.700;10.770;2024-01-25T13:29:22;8.00;99.90
7704;DHT22;3894;49.700;10.770;2024-01-25T13:31:48;8.00;99.90
7704;DHT22;3894;49.700;10.770;2024-01-25T13:34:13;8.00;99.90
7704;DHT22;3894;49.700;10.770;2024-01-25T13:36:39;8.00;99.90
7704;DHT22;3894;49.700;10.770;2024-01-25T13:39:05;8.10;99.90
7704;DHT22;3894;49.700;10.770;2024-01-25T13:41:31;8.00;99.90
7704;DHT22;3894;49.700;10.770;2024-01-25T13:43:56;8.10;99.90
7704;DHT22;3894;49.700;10.770;2024-01-25T13:46:22;8.00;99.90
7704;DHT22;3894;49.700;10.770;2024-01-25T13:48:47;8.10;99.90
7704;DHT22;3894;49.700;10.770;2024-01-25T13:51:13;8.10;99.90
7704;DHT22;3894;49.700;10.770;2024-01-25T13:53:39;8.10;99.90
7704;DHT22;3894;49.700;10.770;2024-01-25T13:56:04;8.10;99.90
7704;DHT22;3894;49.700;10.770;2024-01-25T13:58:30;8.10;99.90
7704;DHT22;3894;49.700;10.770;2024-01-25T14:00:56;8.10;99.90
7704;DHT22;3894;49.700;10.770;2024-01-25T14:03:21;8.10;99.90
7704;DHT22;3894;49.700;10.770;2024-01-25T14:05:47;8.10;99.90
7704;DHT22;3894;49.700;10.770;2024-01-25T14:08:13;8.00;99.90
7704;DHT22;3894;49.700;10.770;2024-01-25T14:10:38;8.00;99.90
7704;DHT22;3894;49.700;10.770;2024-01-25T14:13:04;8.00;99.90
7704;DHT22;3894;49.700;10.770;2024-01-25T14:15:29;8.00;99.90
7704;DHT22;3894;49.700;10.770;2024-01-25T14:17:55;7.90;99.90
7704;DHT22;3894;49.700;10.770;2024-01-25T14:20:20;7.90;99.90
7704;DHT22;3894;49.700;10.770;2024-01-25T14:22:48;7.90;99.90
7704;DHT22;3894;49.700;10.770;2024-01-25T14:25:13;7.90;99.90
7704;DHT22;3894;49.700;10.770;2024-01-25T14:27:39;7.90;99.90
7704;DHT22;3894;49.700;10.770;2024-01-25T14:30:05;7.80;99.90
7704;DHT22;3894;49.700;10.770;2024-01-25T14:32:32;7.80;99.90
7704;DHT22;3894;49.700;10.770;2024-01-25T14:34:57;7.80;99.90
7704;DHT22;3894;49.700;10.770;2024-01-25T14:37:23;7.70;99.90
7704;DHT22;3894;49.700;10.770;2024-01-25T14:39:49;7.70;99.90
7704;DHT22;3894;49.700;10.770;2024-01-25T14:42:14;7.70;99.90
7704;DHT22;3894;49.700;10.770;2024-01-25T14:44:43;7.70;99.90
7704;DHT22;3894;49.700;10.770;2024-01-25T14:47:08;7.70;99.90
7704;DHT22;3894;49.700;10.770;2024-01-25T14:49:34;7.60;99.90
7704;DHT22;3894;49.700;10.770;2024-01-25T14:52:00;7.60;99.90
7704;DHT22;3894;49.700;10.770;2024-01-25T14:54:25;7.60;99.90
7704;DHT22;3894;49.700;10.770;2024-01-25T14:56:51;7.50;99.90
7704;DHT22;3894;49.700;10.770;2024-01-25T14:59:17;7.50;99.90
7704;DHT22;3894;49.700;10.770;2024-01-25T15:01:43;7.50;99.90
7704;DHT22;3894;49.700;10.770;2024-01-25T15:04:11;7.40;99.90
7704;DHT22;3894;49.700;10.770;2024-01-25T15:06:37;7.40;99.90
7704;DHT22;3894;49.700;10.770;2024-01-25T15:09:02;7.40;99.90
7704;DHT22;3894;49.700;10.770;2024-01-25T15:11:28;7.30;99.90
7704;DHT22;3894;49.700;10.770;2024-01-25T15:13:53;7.30;99.90
7704;DHT22;3894;49.700;10.770;2024-01-25T15:16:19;7.20;99.90
7704;DHT22;3894;49.700;10.770;2024-01-25T15:18:44;7.20;99.90
7704;DHT22;3894;49.700;10.770;2024-01-25T15:21:10;7.20;99.90
7704;DHT22;3894;49.700;10.770;2024-01-25T15:23:35;7.20;99.90
7704;DHT22;3894;49.700;10.770;2024-01-25T15:26:03;7.10;99.90
7704;DHT22;3894;49.700;10.770;2024-01-25T15:28:29;7.10;99.90
7704;DHT22;3894;49.700;10.770;2024-01-25T15:30:54;7.00;99.90
7704;DHT22;3894;49.700;10.770;2024-01-25T15:33:20;7.00;99.90
7704;DHT22;3894;49.700;10.770;2024-01-25T15:35:45;7.00;99.90
7704;DHT22;3894;49.700;10.770;2024-01-25T15:38:11;7.00;99.90
7704;DHT22;3894;49.700;10.770;2024-01-25T15:40:40;6.90;99.90
7704;DHT22;3894;49.700;10.770;2024-01-25T15:43:06;6.90;99.90
7704;DHT22;3894;49.700;10.770;2024-01-25T15:45:32;6.90;99.90
7704;DHT22;3894;49.700;10.770;2024-01-25T15:47:57;6.90;99.90
7704;DHT22;3894;49.700;10.770;2024-01-25T15:50:23;6.80;99.90
7704;DHT22;3894;49.700;10.770;2024-01-25T15:52:48;6.80;99.90
7704;DHT22;3894;49.700;10.770;2024-01-25T15:55:14;6.80;99.90
7704;DHT22;3894;49.700;10.770;2024-01-25T15:57:39;6.70;99.90